Time;durP1;ratioP1;P1;durP2;ratioP2;P2;SDS_P1;SDS_P2;PMS_P1;PMS_P2;Temp;Humidity;BMP_temperature;BMP_pressure;BME280_temperature;BME280_humidity;BME280_pressure;Samples;Min_cycle;Max_cycle;Signal;HPM_P1;HPM_P2
2023/04/21 00:00:46;;;;;;;7.32;2.55;;;9.40;99.90;;;;;;5050802;28;20021;-73
2023/04/21 00:03:11;;;;;;;11.38;2.33;;;9.40;99.90;;;;;;5050649;28;20032;-73
2023/04/21 00:05:41;;;;;;;8.65;2.08;;;9.40;99.90;;;;;;5051196;28;20025;-73
2023/04/21 00:08:07;;;;;;;12.05;3.03;;;9.30;99.90;;;;;;5050708;28;20481;-73
2023/04/21 00:10:33;;;;;;;16.05;2.80;;;9.30;99.90;;;;;;5050949;28;20017;-74
2023/04/21 00:12:59;;;;;;;7.82;3.25;;;9.20;99.90;;;;;;5050804;28;20047;-73
2023/04/21 00:15:25;;;;;;;11.45;2.53;;;9.20;99.90;;;;;;5050352;28;20443;-74
2023/04/21 00:17:51;;;;;;;13.77;2.42;;;9.20;99.90;;;;;;5050505;28;20017;-74
2023/04/21 00:20:16;;;;;;;7.70;2.15;;;9.20;99.90;;;;;;5049321;28;20117;-74
2023/04/21 00:22:42;;;;;;;9.65;2.22;;;9.20;99.90;;;;;;5050788;28;20071;-74
2023/04/21 00:25:09;;;;;;;15.75;2.60;;;9.20;99.90;;;;;;5050941;28;20037;-73
2023/04/21 00:27:34;;;;;;;10.20;2.35;;;9.20;99.90;;;;;;5051215;28;20021;-75
2023/04/21 00:30:00;;;;;;;4.85;1.83;;;9.20;99.90;;;;;;5050996;28;20032;-72
2023/04/21 00:32:26;;;;;;;6.65;2.40;;;9.30;99.90;;;;;;5053826;28;20025;-72
2023/04/21 00:34:52;;;;;;;6.50;2.15;;;9.20;99.90;;;;;;5054018;28;20432;-73
2023/04/21 00:37:17;;;;;;;6.00;1.73;;;9.20;99.90;;;;;;5053621;28;20029;-73
2023/04/21 00:39:43;;;;;;;7.85;2.58;;;9.20;99.90;;;;;;5053851;28;20119;-73
2023/04/21 00:42:09;;;;;;;5.38;2.13;;;9.20;99.90;;;;;;5053798;28;20461;-72
2023/04/21 00:44:35;;;;;;;4.97;1.85;;;9.20;99.90;;;;;;5053651;28;20048;-72
2023/04/21 00:47:01;;;;;;;6.25;1.92;;;9.20;99.90;;;;;;5053598;28;20024;-73
2023/04/21 00:49:27;;;;;;;12.70;2.10;;;9.20;99.90;;;;;;5053039;28;20104;-74
2023/04/21 00:51:54;;;;;;;7.93;2.20;;;9.20;99.90;;;;;;5053591;28;20044;-74
2023/04/21 00:54:23;;;;;;;12.27;2.20;;;9.20;99.90;;;;;;5053110;28;20021;-74
2023/04/21 00:56:48;;;;;;;9.70;2.28;;;9.20;99.90;;;;;;5053547;28;20070;-73
2023/04/21 00:59:14;;;;;;;8.57;2.40;;;9.20;99.90;;;;;;5053001;28;20020;-73
2023/04/21 01:01:40;;;;;;;8.45;2.30;;;9.20;99.90;;;;;;5053336;28;20035;-73
2023/04/21 01:04:07;;;;;;;8.32;2.63;;;9.20;99.90;;;;;;5053310;28;20358;-72
2023/04/21 01:06:33;;;;;;;11.18;2.20;;;9.20;99.90;;;;;;5052942;28;20051;-73
2023/04/21 01:08:59;;;;;;;8.48;2.42;;;9.20;99.90;;;;;;5053233;28;20028;-73
2023/04/21 01:11:25;;;;;;;8.43;2.28;;;9.10;99.90;;;;;;5053214;28;20032;-73
2023/04/21 01:13:55;;;;;;;6.75;2.83;;;9.10;99.90;;;;;;5053476;28;20027;-74
2023/04/21 01:16:22;;;;;;;11.15;3.65;;;9.10;99.90;;;;;;5052545;28;20300;-74
2023/04/21 01:18:49;;;;;;;8.55;2.58;;;9.10;99.90;;;;;;5053275;28;20123;-74
2023/04/21 01:21:15;;;;;;;8.35;2.50;;;9.10;99.90;;;;;;5052702;28;20021;-74
2023/04/21 01:23:41;;;;;;;10.75;3.00;;;9.10;99.90;;;;;;5052446;28;20041;-73
2023/04/21 01:26:07;;;;;;;8.98;2.63;;;9.10;99.90;;;;;;5052953;28;20021;-73
2023/04/21 01:28:33;;;;;;;11.63;3.40;;;9.10;99.90;;;;;;5052242;28;20493;-74
2023/04/21 01:30:59;;;;;;;9.10;2.88;;;9.10;99.90;;;;;;5052941;28;20025;-74
2023/04/21 01:33:25;;;;;;;11.00;2.85;;;9.10;99.90;;;;;;5052104;28;20424;-74
2023/04/21 01:35:51;;;;;;;21.95;3.88;;;9.20;99.90;;;;;;5052692;28;20016;-73
2023/04/21 01:38:17;;;;;;;12.40;3.25;;;9.10;99.90;;;;;;5051909;28;20370;-74
2023/04/21 01:40:48;;;;;;;16.77;3.45;;;9.10;99.90;;;;;;5052241;28;20025;-72
2023/04/21 01:43:15;;;;;;;16.70;4.10;;;9.10;99.90;;;;;;5052377;28;20025;-76
2023/04/21 01:45:41;;;;;;;12.68;3.72;;;9.00;99.90;;;;;;5052650;28;20029;-73
2023/04/21 01:48:06;;;;;;;10.90;4.28;;;9.00;99.90;;;;;;5052355;28;20024;-73
2023/04/21 01:50:32;;;;;;;14.45;3.70;;;9.00;99.90;;;;;;5052150;28;20056;-73
2023/04/21 01:52:58;;;;;;;14.05;4.15;;;9.00;99.90;;;;;;5052333;28;20031;-73
2023/04/21 01:55:24;;;;;;;16.17;4.15;;;8.90;99.90;;;;;;5051685;28;20462;-73
2023/04/21 01:57:50;;;;;;;10.23;3.40;;;9.00;99.90;;;;;;5052293;28;20032;-72
2023/04/21 02:00:16;;;;;;;19.58;4.90;;;8.90;99.90;;;;;;5052003;28;20032;-73
2023/04/21 02:02:41;;;;;;;10.68;4.00;;;8.90;99.90;;;;;;5051830;28;20065;-72
2023/04/21 02:05:07;;;;;;;12.82;3.83;;;8.90;99.90;;;;;;5052105;28;20057;-74
2023/04/21 02:07:33;;;;;;;16.10;4.55;;;8.90;99.90;;;;;;5051631;28;20032;-73
2023/04/21 02:09:59;;;;;;;11.95;4.35;;;8.80;99.90;;;;;;5052267;28;20025;-73
2023/04/21 02:12:24;;;;;;;13.68;4.35;;;8.90;99.90;;;;;;5051592;28;20048;-73
2023/04/21 02:14:50;;;;;;;6.75;2.75;;;8.80;99.90;;;;;;5051799;28;20021;-72
2023/04/21 02:17:16;;;;;;;13.07;4.55;;;8.90;99.90;;;;;;5051591;28;20067;-77
2023/04/21 02:19:42;;;;;;;14.32;4.65;;;8.80;99.90;;;;;;5051766;28;20101;-73
2023/04/21 02:22:09;;;;;;;15.43;4.75;;;8.80;99.90;;;;;;5051702;28;20057;-73
2023/04/21 02:24:35;;;;;;;13.90;4.80;;;8.80;99.90;;;;;;5051259;28;20438;-73
2023/04/21 02:27:01;;;;;;;14.23;5.35;;;8.80;99.90;;;;;;5051612;28;20018;-72
2023/04/21 02:29:27;;;;;;;13.43;5.05;;;8.80;99.90;;;;;;5051365;28;20021;-72
2023/04/21 02:31:53;;;;;;;13.23;4.65;;;8.80;99.90;;;;;;5051569;28;20024;-73
2023/04/21 02:34:19;;;;;;;22.45;5.10;;;8.80;99.90;;;;;;5050800;28;20025;-73
2023/04/21 02:36:45;;;;;;;14.60;5.65;;;8.80;99.90;;;;;;5051910;28;20024;-72
2023/04/21 02:39:11;;;;;;;12.18;4.55;;;8.70;99.90;;;;;;5051645;28;20100;-72
2023/04/21 02:41:38;;;;;;;13.25;4.88;;;8.80;99.90;;;;;;5050714;28;20401;-73
2023/04/21 02:44:04;;;;;;;16.02;5.82;;;8.80;99.90;;;;;;5051074;28;20426;-74
2023/04/21 02:46:29;;;;;;;14.60;5.47;;;8.70;99.90;;;;;;5050807;28;20311;-73
2023/04/21 02:48:55;;;;;;;11.75;4.60;;;8.70;99.90;;;;;;5051393;28;20095;-72
2023/04/21 02:51:21;;;;;;;9.65;3.47;;;8.70;99.90;;;;;;5050712;28;20025;-74
2023/04/21 02:53:47;;;;;;;16.20;5.22;;;8.70;99.90;;;;;;5050694;28;20059;-74
2023/04/21 02:56:13;;;;;;;13.13;4.60;;;8.70;99.90;;;;;;5051400;28;20021;-73
2023/04/21 02:58:38;;;;;;;12.45;4.60;;;8.70;99.90;;;;;;5050632;28;20380;-72
2023/04/21 03:01:04;;;;;;;12.30;5.35;;;8.70;99.90;;;;;;5051104;28;20020;-72
2023/04/21 03:03:31;;;;;;;14.90;5.07;;;8.70;99.90;;;;;;5050573;28;20040;-73
2023/04/21 03:06:02;;;;;;;13.20;5.13;;;8.60;99.90;;;;;;5051213;28;20373;-73
2023/04/21 03:08:28;;;;;;;17.05;5.93;;;8.60;99.90;;;;;;5050733;28;20028;-73
2023/04/21 03:10:55;;;;;;;13.25;5.47;;;8.60;99.90;;;;;;5050985;28;20104;-73
2023/04/21 03:13:22;;;;;;;12.27;4.57;;;8.70;99.90;;;;;;5050205;28;20118;-74
2023/04/21 03:15:47;;;;;;;14.25;5.63;;;8.70;99.90;;;;;;5050689;28;20024;-72
2023/04/21 03:18:13;;;;;;;14.90;5.18;;;8.60;99.90;;;;;;5050951;28;20071;-73
2023/04/21 03:20:39;;;;;;;13.25;5.32;;;8.70;99.90;;;;;;5050607;28;20231;-73
2023/04/21 03:23:05;;;;;;;12.93;5.55;;;8.60;99.90;;;;;;5050410;28;20080;-73
2023/04/21 03:25:30;;;;;;;14.45;5.10;;;8.60;99.90;;;;;;5049220;28;20036;-73
2023/04/21 03:27:57;;;;;;;13.65;5.45;;;8.60;99.90;;;;;;5050891;28;20063;-74
2023/04/21 03:30:25;;;;;;;15.07;5.25;;;8.60;99.90;;;;;;5051187;28;20032;-74
2023/04/21 03:32:51;;;;;;;13.18;5.18;;;8.60;99.90;;;;;;5050841;28;20051;-74
2023/04/21 03:35:17;;;;;;;12.60;5.57;;;8.60;99.90;;;;;;5050616;28;20028;-73
2023/04/21 03:37:43;;;;;;;13.07;4.90;;;8.70;99.90;;;;;;5050552;28;20017;-73
2023/04/21 03:40:09;;;;;;;14.43;4.95;;;8.60;99.90;;;;;;5050725;28;20028;-73
2023/04/21 03:42:36;;;;;;;11.18;4.53;;;8.60;99.90;;;;;;5050254;28;20021;-73
2023/04/21 03:45:06;;;;;;;13.57;4.85;;;8.60;99.90;;;;;;5050440;28;20315;-74
2023/04/21 03:47:32;;;;;;;15.10;5.03;;;8.60;99.90;;;;;;5050400;28;20025;-73
2023/04/21 03:49:57;;;;;;;17.83;4.72;;;8.60;99.90;;;;;;5050618;28;20025;-73
2023/04/21 03:52:23;;;;;;;15.02;4.85;;;8.60;99.90;;;;;;5049994;28;20024;-73
2023/04/21 03:54:49;;;;;;;16.95;5.05;;;8.70;99.90;;;;;;5050349;28;20399;-73
2023/04/21 03:57:16;;;;;;;13.13;4.57;;;8.70;99.90;;;;;;5050524;28;20028;-73
2023/04/21 03:59:42;;;;;;;13.73;4.55;;;8.70;99.90;;;;;;5050208;28;20025;-73
2023/04/21 04:02:08;;;;;;;16.73;5.30;;;8.70;99.90;;;;;;5050491;28;20367;-73
2023/04/21 04:04:34;;;;;;;12.98;4.93;;;8.70;99.90;;;;;;5049879;28;20457;-73
2023/04/21 04:07:00;;;;;;;14.50;4.63;;;8.70;99.90;;;;;;5054204;28;20021;-74
2023/04/21 04:09:26;;;;;;;12.38;4.70;;;8.70;99.90;;;;;;5054036;28;20017;-73
2023/04/21 04:11:51;;;;;;;13.90;4.82;;;8.80;99.90;;;;;;5054573;28;20366;-74
2023/04/21 04:14:17;;;;;;;11.77;4.45;;;8.80;99.90;;;;;;5054223;28;20119;-73
2023/04/21 04:16:43;;;;;;;15.45;4.20;;;8.80;99.90;;;;;;5053687;28;20641;-73
2023/04/21 04:19:09;;;;;;;12.15;4.13;;;8.80;99.90;;;;;;5054207;28;20083;-73
2023/04/21 04:21:34;;;;;;;14.15;4.22;;;8.80;99.90;;;;;;5053927;28;20021;-74
2023/04/21 04:24:04;;;;;;;15.80;4.90;;;8.80;99.90;;;;;;5052750;28;20366;-73
2023/04/21 04:26:32;;;;;;;11.18;4.72;;;8.80;99.90;;;;;;5054018;28;20097;-73
2023/04/21 04:29:01;;;;;;;20.45;5.22;;;8.80;99.90;;;;;;5054554;28;20104;-73
2023/04/21 04:31:29;;;;;;;11.77;4.93;;;8.70;99.90;;;;;;5054097;28;20025;-73
2023/04/21 04:33:56;;;;;;;13.45;4.70;;;8.70;99.90;;;;;;5054382;28;20032;-73
2023/04/21 04:36:23;;;;;;;13.18;5.20;;;8.70;99.90;;;;;;5053894;28;20020;-72
2023/04/21 04:38:48;;;;;;;11.50;4.80;;;8.70;99.90;;;;;;5053286;28;20084;-73
2023/04/21 04:41:18;;;;;;;20.20;5.30;;;8.80;99.90;;;;;;5053419;28;20108;-74
2023/04/21 04:43:44;;;;;;;11.32;4.55;;;8.80;99.90;;;;;;5053190;28;20370;-73
2023/04/21 04:46:11;;;;;;;11.38;5.57;;;8.90;99.90;;;;;;5053782;28;20108;-73
2023/04/21 04:48:37;;;;;;;12.00;5.32;;;8.90;99.90;;;;;;5053390;28;20119;-74
2023/04/21 04:51:04;;;;;;;13.05;5.25;;;8.90;99.90;;;;;;5053903;28;20028;-73
2023/04/21 04:53:30;;;;;;;11.25;4.82;;;8.90;99.90;;;;;;5052744;28;20433;-72
2023/04/21 04:55:58;;;;;;;15.13;5.57;;;9.00;99.90;;;;;;5053428;28;20124;-74
2023/04/21 04:58:23;;;;;;;13.15;5.13;;;8.90;99.90;;;;;;5053443;28;20477;-73
2023/04/21 05:00:50;;;;;;;10.15;4.53;;;9.00;99.90;;;;;;5052945;28;20021;-74
2023/04/21 05:03:15;;;;;;;12.57;4.65;;;8.90;99.90;;;;;;5053317;28;20036;-74
2023/04/21 05:05:41;;;;;;;11.07;5.38;;;8.90;99.90;;;;;;5052858;28;20025;-71
2023/04/21 05:08:07;;;;;;;11.10;4.47;;;8.90;99.90;;;;;;5053263;28;20021;-73
2023/04/21 05:10:33;;;;;;;13.93;4.82;;;8.80;99.90;;;;;;5051458;28;20052;-73
2023/04/21 05:12:58;;;;;;;13.45;5.57;;;8.90;99.90;;;;;;5053132;28;20029;-72
2023/04/21 05:15:24;;;;;;;13.30;5.60;;;8.80;99.90;;;;;;5052875;28;20429;-74
2023/04/21 05:17:50;;;;;;;13.90;5.00;;;8.80;99.90;;;;;;5052276;28;20231;-74
2023/04/21 05:20:16;;;;;;;12.88;5.35;;;8.90;99.90;;;;;;5052979;28;20418;-74
2023/04/21 05:22:41;;;;;;;12.30;5.57;;;8.90;99.90;;;;;;5052426;28;20169;-73
2023/04/21 05:25:09;;;;;;;12.32;5.82;;;8.90;99.90;;;;;;5052887;28;20060;-74
2023/04/21 05:27:34;;;;;;;13.55;5.32;;;8.90;99.90;;;;;;5051373;28;20564;-74
2023/04/21 05:30:00;;;;;;;15.85;5.68;;;8.90;99.90;;;;;;5052811;28;20063;-74
2023/04/21 05:32:26;;;;;;;17.33;5.82;;;8.90;99.90;;;;;;5052767;28;20414;-74
2023/04/21 05:34:52;;;;;;;12.88;5.50;;;8.90;99.90;;;;;;5052315;28;20033;-73
2023/04/21 05:37:17;;;;;;;15.95;5.47;;;8.80;99.90;;;;;;5052562;28;20039;-73
2023/04/21 05:39:43;;;;;;;17.27;5.50;;;8.80;99.90;;;;;;5052388;28;20098;-73
2023/04/21 05:42:10;;;;;;;15.82;5.22;;;8.80;99.90;;;;;;5052518;28;20152;-73
2023/04/21 05:44:36;;;;;;;17.42;5.95;;;8.80;99.90;;;;;;5052079;28;20033;-72
2023/04/21 05:47:04;;;;;;;14.60;5.47;;;8.70;99.90;;;;;;5050858;28;20427;-73
2023/04/21 05:49:29;;;;;;;18.83;5.65;;;8.80;99.90;;;;;;5051965;28;20047;-73
2023/04/21 05:51:55;;;;;;;12.43;5.78;;;8.70;99.90;;;;;;5052367;28;20434;-72
2023/04/21 05:54:21;;;;;;;15.10;5.45;;;8.70;99.90;;;;;;5052206;28;20025;-73
2023/04/21 05:56:47;;;;;;;19.77;5.97;;;8.80;99.90;;;;;;5051800;28;20065;-73
2023/04/21 05:59:13;;;;;;;11.05;5.53;;;8.80;99.90;;;;;;5052263;28;20029;-73
2023/04/21 06:01:38;;;;;;;17.77;6.25;;;8.80;99.90;;;;;;5051708;28;20028;-73
2023/04/21 06:04:04;;;;;;;14.70;5.70;;;8.70;99.90;;;;;;5052183;28;20037;-71
2023/04/21 06:06:30;;;;;;;18.23;6.28;;;8.70;99.90;;;;;;5051899;28;20209;-76
2023/04/21 06:08:56;;;;;;;17.73;5.75;;;8.70;99.90;;;;;;5052153;28;20112;-72
2023/04/21 06:11:22;;;;;;;16.10;6.00;;;8.70;99.90;;;;;;5052068;28;20060;-73
2023/04/21 06:13:49;;;;;;;20.10;6.40;;;8.70;99.90;;;;;;5051470;28;20310;-73
2023/04/21 06:16:15;;;;;;;17.10;6.25;;;8.80;99.90;;;;;;5051820;28;20021;-74
2023/04/21 06:18:40;;;;;;;20.73;6.25;;;8.80;99.90;;;;;;5051322;28;20024;-74
2023/04/21 06:21:06;;;;;;;21.50;6.32;;;8.80;99.90;;;;;;5051543;28;20021;-73
2023/04/21 06:23:32;;;;;;;15.35;5.85;;;8.80;99.90;;;;;;5051161;28;20417;-74
2023/04/21 06:26:03;;;;;;;21.77;6.22;;;8.90;99.90;;;;;;5051845;28;20020;-74
2023/04/21 06:28:30;;;;;;;18.40;5.97;;;9.00;99.90;;;;;;5050897;28;20032;-73
2023/04/21 06:30:57;;;;;;;19.80;5.75;;;9.00;99.90;;;;;;5051292;28;20129;-73
2023/04/21 06:33:23;;;;;;;21.13;6.68;;;9.10;99.90;;;;;;5051812;28;20025;-73
2023/04/21 06:35:48;;;;;;;14.25;5.57;;;9.10;99.90;;;;;;5051073;28;20025;-73
2023/04/21 06:38:14;;;;;;;16.67;5.75;;;9.10;99.90;;;;;;5051862;28;20031;-73
2023/04/21 06:40:40;;;;;;;21.40;6.28;;;9.20;99.90;;;;;;5051131;28;20104;-73
2023/04/21 06:43:06;;;;;;;19.42;5.80;;;9.30;99.90;;;;;;5051469;28;20353;-73
2023/04/21 06:45:32;;;;;;;11.05;5.35;;;9.40;99.90;;;;;;5051524;28;20017;-73
2023/04/21 06:47:57;;;;;;;14.05;5.55;;;9.50;99.90;;;;;;5051474;28;20020;-73
2023/04/21 06:50:23;;;;;;;16.23;5.63;;;9.50;99.90;;;;;;5051335;28;20451;-73
2023/04/21 06:52:49;;;;;;;16.00;5.82;;;9.60;99.90;;;;;;5050699;28;20082;-74
2023/04/21 06:55:15;;;;;;;12.77;5.35;;;9.60;99.90;;;;;;5050900;28;20090;-74
2023/04/21 06:57:40;;;;;;;12.23;5.60;;;9.70;99.90;;;;;;5050788;28;20047;-73
2023/04/21 07:00:07;;;;;;;10.10;4.78;;;9.70;99.90;;;;;;5051116;28;20028;-73
2023/04/21 07:02:32;;;;;;;13.45;5.45;;;9.80;99.90;;;;;;5050921;28;20070;-74
2023/04/21 07:04:58;;;;;;;13.55;5.38;;;9.90;99.90;;;;;;5050517;28;20458;-74
2023/04/21 07:07:24;;;;;;;11.90;4.90;;;9.80;99.90;;;;;;5051022;28;20097;-73
2023/04/21 07:09:50;;;;;;;13.82;5.93;;;9.80;99.90;;;;;;5050663;28;20128;-73
2023/04/21 07:12:15;;;;;;;13.20;5.40;;;9.90;99.90;;;;;;5051134;28;20021;-73
2023/04/21 07:14:41;;;;;;;19.08;6.15;;;9.80;99.90;;;;;;5048951;28;20110;-73
2023/04/21 07:17:07;;;;;;;15.20;5.63;;;9.70;99.90;;;;;;5051139;28;20025;-72
2023/04/21 07:19:32;;;;;;;17.42;6.30;;;9.70;99.90;;;;;;5050828;28;20029;-73
2023/04/21 07:21:58;;;;;;;19.98;6.90;;;9.80;99.90;;;;;;5050135;28;20079;-74
2023/04/21 07:24:24;;;;;;;17.02;6.72;;;9.80;99.90;;;;;;5050775;28;20112;-74
2023/04/21 07:26:49;;;;;;;19.00;6.05;;;9.90;99.90;;;;;;5050094;28;20024;-73
2023/04/21 07:29:15;;;;;;;13.70;5.85;;;9.90;99.90;;;;;;5050602;28;20021;-73
2023/04/21 07:31:41;;;;;;;13.85;5.60;;;9.90;99.90;;;;;;5050291;28;20032;-73
2023/04/21 07:34:07;;;;;;;16.70;6.15;;;10.00;99.90;;;;;;5050746;28;20033;-73
2023/04/21 07:36:32;;;;;;;13.43;5.47;;;10.00;99.90;;;;;;5050669;28;20048;-74
2023/04/21 07:38:58;;;;;;;14.85;5.80;;;9.90;99.90;;;;;;5050701;28;20102;-72
2023/04/21 07:41:24;;;;;;;12.85;5.95;;;9.90;99.90;;;;;;5054851;28;20037;-74
2023/04/21 07:43:49;;;;;;;18.10;5.93;;;9.90;99.90;;;;;;5054275;28;20065;-73
2023/04/21 07:46:15;;;;;;;18.48;5.88;;;9.90;99.90;;;;;;5054894;28;20027;-73
2023/04/21 07:48:41;;;;;;;15.40;5.80;;;9.90;99.90;;;;;;5054267;28;20021;-73
2023/04/21 07:51:06;;;;;;;21.10;6.13;;;10.00;99.90;;;;;;5054751;28;20025;-73
2023/04/21 07:53:32;;;;;;;15.10;6.28;;;10.00;99.90;;;;;;5054810;28;20025;-73
2023/04/21 07:55:58;;;;;;;14.80;5.75;;;10.10;99.90;;;;;;5054423;28;20450;-74
2023/04/21 07:58:24;;;;;;;12.70;5.63;;;10.10;99.90;;;;;;5054593;28;20411;-73
2023/04/21 08:00:50;;;;;;;17.52;6.45;;;10.20;99.90;;;;;;5052588;28;20020;-73
2023/04/21 08:03:15;;;;;;;16.38;5.75;;;10.40;99.90;;;;;;5054359;28;20029;-74
2023/04/21 08:05:41;;;;;;;17.08;6.05;;;10.70;99.90;;;;;;5053914;28;20025;-73
2023/04/21 08:08:07;;;;;;;21.27;5.82;;;11.00;99.90;;;;;;5054300;28;20025;-74
2023/04/21 08:10:33;;;;;;;23.00;6.30;;;11.00;99.90;;;;;;5054212;28;20092;-73
2023/04/21 08:12:59;;;;;;;21.02;6.47;;;11.10;99.90;;;;;;5052464;28;20040;-74
2023/04/21 08:15:25;;;;;;;16.60;6.22;;;11.10;99.90;;;;;;5054385;28;20048;-74
2023/04/21 08:17:51;;;;;;;16.65;5.60;;;11.10;99.90;;;;;;5053386;28;20025;-74
2023/04/21 08:20:17;;;;;;;23.45;6.45;;;11.00;99.90;;;;;;5054250;28;20035;-74
2023/04/21 08:22:42;;;;;;;18.50;6.75;;;11.00;99.90;;;;;;5053524;28;20041;-72
2023/04/21 08:25:08;;;;;;;17.60;5.72;;;11.20;99.90;;;;;;5053989;28;20056;-73
2023/04/21 08:27:38;;;;;;;24.73;6.68;;;11.20;99.90;;;;;;5054077;28;20102;-73
2023/04/21 08:30:04;;;;;;;18.52;5.90;;;11.30;99.90;;;;;;5053393;28;20499;-73
2023/04/21 08:32:30;;;;;;;18.55;5.38;;;11.40;99.90;;;;;;5053830;28;20090;-74
2023/04/21 08:34:55;;;;;;;17.05;6.03;;;11.50;99.90;;;;;;5052037;28;20029;-74
2023/04/21 08:37:22;;;;;;;20.23;6.60;;;11.50;99.90;;;;;;5053839;28;20021;-73
2023/04/21 08:39:49;;;;;;;17.60;6.03;;;11.50;99.90;;;;;;5053304;28;20025;-73
2023/04/21 08:42:19;;;;;;;16.27;5.80;;;11.40;99.90;;;;;;5053727;28;20128;-72
2023/04/21 08:44:45;;;;;;;17.27;5.63;;;11.40;99.90;;;;;;5053135;28;20406;-74
2023/04/21 08:47:12;;;;;;;18.95;6.28;;;11.30;99.90;;;;;;5053661;28;20037;-73
2023/04/21 08:49:39;;;;;;;22.95;6.85;;;11.10;99.90;;;;;;5053679;28;20025;-74
2023/04/21 08:52:06;;;;;;;13.77;6.53;;;11.30;99.90;;;;;;5052854;28;20104;-74
2023/04/21 08:54:32;;;;;;;16.45;6.18;;;11.30;99.90;;;;;;5053616;28;20060;-73
2023/04/21 08:56:59;;;;;;;20.00;6.13;;;11.30;99.90;;;;;;5052998;28;20104;-72
2023/04/21 08:59:25;;;;;;;15.77;6.20;;;11.30;99.90;;;;;;5053227;28;20059;-72
2023/04/21 09:02:19;;;;;;;15.40;6.63;;;11.20;99.90;;;;;;5052754;28;20052;-73
2023/04/21 09:04:46;;;;;;;18.88;6.40;;;11.10;99.90;;;;;;5052830;28;20028;-73
2023/04/21 09:07:41;;;;;;;18.63;6.00;;;11.10;99.90;;;;;;5053268;28;20107;-74
2023/04/21 09:10:07;;;;;;;16.55;6.13;;;11.20;99.90;;;;;;5053443;28;20132;-74
2023/04/21 09:12:33;;;;;;;18.40;6.43;;;11.10;99.90;;;;;;5053262;28;20366;-73
2023/04/21 09:15:03;;;;;;;19.83;7.00;;;11.10;99.90;;;;;;5052750;28;20100;-73
2023/04/21 09:17:35;;;;;;;19.45;6.20;;;11.00;99.90;;;;;;5053380;28;20021;-73
2023/04/21 09:20:18;;;;;;;24.52;6.75;;;11.00;99.90;;;;;;5053389;28;20021;-73
2023/04/21 09:22:44;;;;;;;17.95;6.75;;;11.00;99.90;;;;;;5053148;28;20128;-73
2023/04/21 09:25:16;;;;;;;20.10;6.60;;;10.90;99.90;;;;;;5054062;28;20136;-75
2023/04/21 09:27:42;;;;;;;16.35;6.32;;;11.00;99.90;;;;;;5053516;28;20037;-74
2023/04/21 09:30:08;;;;;;;17.52;6.93;;;11.00;99.90;;;;;;5053158;28;20419;-73
2023/04/21 09:32:38;;;;;;;19.98;6.95;;;10.90;99.90;;;;;;5052870;28;20021;-74
2023/04/21 09:35:10;;;;;;;16.63;6.57;;;10.80;99.90;;;;;;5052532;28;20056;-73
2023/04/21 09:37:37;;;;;;;20.57;6.87;;;10.80;99.90;;;;;;5051410;28;20025;-73
2023/04/21 09:40:03;;;;;;;17.45;6.13;;;10.80;99.90;;;;;;5052448;28;20545;-73
2023/04/21 09:42:30;;;;;;;19.63;6.80;;;10.90;99.90;;;;;;5052701;28;20090;-72
2023/04/21 09:44:56;;;;;;;16.60;6.32;;;11.10;99.90;;;;;;5052344;28;20028;-73
2023/04/21 09:47:22;;;;;;;16.75;6.20;;;11.20;99.90;;;;;;5052755;28;20437;-72
2023/04/21 09:49:51;;;;;;;20.55;6.85;;;11.20;99.90;;;;;;5052020;28;20094;-74
2023/04/21 09:52:20;;;;;;;16.48;6.15;;;11.40;99.90;;;;;;5052549;28;20373;-72
2023/04/21 09:54:55;;;;;;;11.65;5.85;;;11.30;99.90;;;;;;5051920;28;20033;-73
2023/04/21 09:57:24;;;;;;;17.20;7.18;;;11.40;99.90;;;;;;5052203;28;20415;-73
2023/04/21 09:59:55;;;;;;;20.48;7.15;;;11.50;99.90;;;;;;5051789;28;20108;-74
2023/04/21 10:02:25;;;;;;;20.25;6.82;;;11.60;99.90;;;;;;5051685;28;20103;-74
2023/04/21 10:04:51;;;;;;;19.30;5.82;;;11.50;99.90;;;;;;5051525;28;20028;-74
2023/04/21 10:07:17;;;;;;;23.38;7.20;;;11.40;99.90;;;;;;5052273;28;20036;-73
2023/04/21 10:09:47;;;;;;;18.23;6.32;;;11.40;99.90;;;;;;5052285;28;20024;-74
2023/04/21 10:12:14;;;;;;;17.67;7.45;;;11.50;99.90;;;;;;5052441;28;20120;-74
2023/04/21 10:14:40;;;;;;;14.23;6.22;;;11.60;99.90;;;;;;5052217;28;20029;-73
2023/04/21 10:17:09;;;;;;;20.33;7.00;;;11.70;99.90;;;;;;5051710;28;20212;-74
2023/04/21 10:19:39;;;;;;;15.68;6.57;;;11.90;99.90;;;;;;5052347;28;20024;-74
2023/04/21 10:22:09;;;;;;;13.77;5.88;;;11.90;99.90;;;;;;5051345;28;20151;-74
2023/04/21 10:24:39;;;;;;;20.50;6.57;;;12.00;99.90;;;;;;5052391;28;20060;-73
2023/04/21 10:27:05;;;;;;;19.33;6.03;;;11.90;99.90;;;;;;5051616;28;20545;-73
2023/04/21 10:29:33;;;;;;;17.23;5.88;;;11.80;99.90;;;;;;5051796;28;20036;-73
2023/04/21 10:31:59;;;;;;;23.35;6.32;;;11.60;99.90;;;;;;5051375;28;20411;-73
2023/04/21 10:34:37;;;;;;;16.55;7.03;;;11.60;99.90;;;;;;5051629;28;20052;-73
2023/04/21 10:37:03;;;;;;;17.67;6.72;;;11.60;99.90;;;;;;5051052;28;20102;-73
2023/04/21 10:39:41;;;;;;;13.75;5.53;;;11.60;99.90;;;;;;5051720;28;20067;-73
2023/04/21 10:42:16;;;;;;;21.73;6.97;;;11.70;99.90;;;;;;5051449;28;20743;-73
2023/04/21 10:44:52;;;;;;;21.23;6.90;;;11.70;99.90;;;;;;5051512;28;20074;-73
2023/04/21 10:47:42;;;;;;;20.85;7.22;;;11.80;99.90;;;;;;5051777;28;20418;-73
2023/04/21 10:50:17;;;;;;;20.55;7.18;;;11.90;99.90;;;;;;5051231;28;20044;-73
2023/04/21 10:52:51;;;;;;;23.23;6.30;;;11.90;99.90;;;;;;5051319;28;20451;-73
2023/04/21 10:55:16;;;;;;;25.90;6.70;;;12.00;99.90;;;;;;5051549;28;20078;-72
2023/04/21 10:57:44;;;;;;;23.65;7.30;;;12.10;99.90;;;;;;5051553;28;20100;-73
2023/04/21 11:00:13;;;;;;;25.25;8.07;;;12.10;99.90;;;;;;5050879;28;20086;-73
2023/04/21 11:02:39;;;;;;;20.30;7.25;;;12.20;99.90;;;;;;5051496;28;20059;-73
2023/04/21 11:05:05;;;;;;;18.98;6.53;;;12.20;99.90;;;;;;5050839;28;20062;-74
2023/04/21 11:07:31;;;;;;;25.80;7.28;;;12.30;99.90;;;;;;5051282;28;20029;-73
2023/04/21 11:10:02;;;;;;;11.43;5.32;;;12.40;99.90;;;;;;5050796;28;20028;-74
2023/04/21 11:12:30;;;;;;;26.38;7.85;;;12.30;99.90;;;;;;5049334;28;20130;-73
2023/04/21 11:14:56;;;;;;;17.83;6.72;;;12.30;99.90;;;;;;5049882;28;20476;-74
2023/04/21 11:17:23;;;;;;;31.35;7.80;;;12.30;99.90;;;;;;5051140;28;20025;-73
2023/04/21 11:19:50;;;;;;;23.42;6.97;;;12.20;99.90;;;;;;5050761;28;20102;-73
2023/04/21 11:22:17;;;;;;;23.55;6.78;;;12.20;99.90;;;;;;5050679;28;20033;-73
2023/04/21 11:24:49;;;;;;;22.42;6.20;;;12.30;99.90;;;;;;5050438;28;20056;-73
2023/04/21 11:27:16;;;;;;;27.90;7.07;;;12.40;99.90;;;;;;5050758;28;20032;-73
2023/04/21 11:29:45;;;;;;;18.02;6.13;;;12.50;99.90;;;;;;5050796;28;20095;-73
2023/04/21 11:32:12;;;;;;;25.38;7.22;;;12.50;99.90;;;;;;5050247;28;20068;-73
2023/04/21 11:34:38;;;;;;;20.30;6.55;;;12.50;99.90;;;;;;5050756;28;20370;-73
2023/04/21 11:37:12;;;;;;;25.33;7.55;;;12.30;99.90;;;;;;5050261;28;20025;-73
2023/04/21 11:39:40;;;;;;;13.77;6.45;;;12.40;99.90;;;;;;5050918;28;20491;-73
2023/04/21 11:42:06;;;;;;;24.73;7.25;;;12.50;99.90;;;;;;5050330;28;20523;-74
2023/04/21 11:44:34;;;;;;;20.17;6.22;;;12.70;99.90;;;;;;5050836;28;20033;-74
2023/04/21 11:47:10;;;;;;;19.80;6.82;;;12.60;99.90;;;;;;5050395;28;20029;-73
2023/04/21 11:49:46;;;;;;;21.00;7.50;;;12.70;99.90;;;;;;5050689;28;20347;-73
2023/04/21 11:52:26;;;;;;;20.92;7.43;;;12.70;99.90;;;;;;5050891;28;20146;-73
2023/04/21 11:55:17;;;;;;;21.02;7.13;;;12.60;99.90;;;;;;5050552;28;20036;-76
2023/04/21 11:57:43;;;;;;;21.73;6.90;;;12.50;99.90;;;;;;5047641;28;20099;-73
2023/04/21 12:00:12;;;;;;;17.08;6.53;;;12.50;99.90;;;;;;5050291;28;20032;-74
2023/04/21 12:02:38;;;;;;;21.27;6.63;;;12.60;99.90;;;;;;5050400;28;20025;-74
2023/04/21 12:05:11;;;;;;;17.00;6.75;;;12.60;99.90;;;;;;5050209;28;20025;-74
2023/04/21 12:07:44;;;;;;;20.50;7.65;;;12.70;99.90;;;;;;5050651;28;20040;-74
2023/04/21 12:10:13;;;;;;;19.88;7.53;;;12.80;99.90;;;;;;5050165;28;20017;-74
2023/04/21 12:12:41;;;;;;;22.05;6.80;;;12.90;99.90;;;;;;5050288;28;20071;-74
2023/04/21 12:15:08;;;;;;;19.77;6.93;;;12.90;99.90;;;;;;5049717;28;20056;-74
2023/04/21 12:17:38;;;;;;;20.08;6.78;;;13.00;99.90;;;;;;5050364;28;20100;-74
2023/04/21 12:20:07;;;;;;;20.15;7.55;;;13.10;99.90;;;;;;5049927;28;20035;-74
2023/04/21 12:22:33;;;;;;;21.75;7.78;;;13.10;99.90;;;;;;5049805;28;20049;-74
2023/04/21 12:24:59;;;;;;;21.40;6.95;;;13.20;99.90;;;;;;5049783;28;20449;-74
2023/04/21 12:27:26;;;;;;;15.45;6.43;;;13.30;99.90;;;;;;5052832;28;20418;-74
2023/04/21 12:29:51;;;;;;;19.15;7.15;;;13.40;99.90;;;;;;5053889;28;20021;-73
2023/04/21 12:32:17;;;;;;;23.88;7.45;;;13.40;99.90;;;;;;5053466;28;20110;-72
2023/04/21 12:34:43;;;;;;;26.52;6.70;;;13.50;99.90;;;;;;5053930;28;20021;-73
2023/04/21 12:37:09;;;;;;;18.98;6.78;;;13.60;99.90;;;;;;5053572;28;20025;-73
2023/04/21 12:39:35;;;;;;;18.17;7.05;;;13.60;99.90;;;;;;5053869;28;20047;-73
2023/04/21 12:42:01;;;;;;;21.30;6.45;;;13.60;99.90;;;;;;5053751;28;20324;-73